createdAt,value
2022-12-23T00:00:00.661Z,87.7
2022-12-23T00:01:00.796Z,87.7
2022-12-23T00:02:01.051Z,87.8
2022-12-23T00:03:01.201Z,87.8
2022-12-23T00:04:01.302Z,87.8
2022-12-23T00:05:00.395Z,87.8
2022-12-23T00:06:00.537Z,87.8
2022-12-23T00:07:00.719Z,87.8
2022-12-23T00:08:00.848Z,87.9
2022-12-23T00:09:01.003Z,87.9
2022-12-23T00:10:01.141Z,88
2022-12-23T00:11:00.293Z,87.9
2022-12-23T00:12:00.471Z,87.9
2022-12-23T00:13:00.614Z,87.9
2022-12-23T00:14:00.735Z,87.9
2022-12-23T00:15:00.914Z,87.9
2022-12-23T00:16:01.167Z,87.9
2022-12-23T00:17:01.253Z,87.9
2022-12-23T00:18:00.333Z,88
2022-12-23T00:19:00.482Z,88
2022-12-23T00:20:00.629Z,88
2022-12-23T00:21:06.601Z,88
2022-12-23T00:22:00.924Z,88
2022-12-23T00:23:01.079Z,88
2022-12-23T00:24:01.220Z,87.9
2022-12-23T00:25:00.374Z,88
2022-12-23T00:26:00.663Z,88
2022-12-23T00:27:00.672Z,88
2022-12-23T00:28:00.825Z,87.9
2022-12-23T00:29:00.992Z,87.9
2022-12-23T00:30:01.122Z,87.9
2022-12-23T00:31:00.277Z,87.9
2022-12-23T00:32:00.546Z,88
2022-12-23T00:33:00.572Z,88
2022-12-23T00:34:00.728Z,88
2022-12-23T00:35:00.864Z,88
2022-12-23T00:36:01.066Z,88
2022-12-23T00:37:01.192Z,88.1
2022-12-23T00:38:00.318Z,88.2
2022-12-23T00:39:00.496Z,88.2
2022-12-23T00:40:06.148Z,88.2
2022-12-23T00:41:00.792Z,88.2
2022-12-23T00:42:00.943Z,88.2
2022-12-23T00:43:01.114Z,88.2
2022-12-23T00:44:01.257Z,88.3
2022-12-23T00:45:00.395Z,88.3
2022-12-23T00:46:00.641Z,88.3
2022-12-23T00:47:00.700Z,88.3
2022-12-23T00:48:00.863Z,88.2
2022-12-23T00:49:00.998Z,88.2
2022-12-23T00:50:01.169Z,88.3
2022-12-23T00:51:00.315Z,88.3
2022-12-23T00:52:00.457Z,88.3
2022-12-23T00:53:00.651Z,88.3
2022-12-23T00:54:00.780Z,88.4
2022-12-23T00:55:00.899Z,88.4
2022-12-23T00:56:01.059Z,88.4
2022-12-23T00:57:01.204Z,88.4
2022-12-23T00:58:00.388Z,88.5
2022-12-23T00:59:00.503Z,88.6
2022-12-23T01:00:00.664Z,88.6
2022-12-23T01:01:00.863Z,88.6
2022-12-23T01:02:01.136Z,88.7
2022-12-23T01:03:01.195Z,88.7
2022-12-23T01:04:01.252Z,88.7
2022-12-23T01:05:00.411Z,88.8
2022-12-23T01:06:00.563Z,88.8
2022-12-23T01:07:00.728Z,88.8
2022-12-23T01:08:00.876Z,88.8
2022-12-23T01:09:01.057Z,88.7
2022-12-23T01:10:01.152Z,88.8
2022-12-23T01:11:00.317Z,88.8
2022-12-23T01:12:00.458Z,88.9
2022-12-23T01:13:00.645Z,88.8
2022-12-23T01:14:00.802Z,88.8
2022-12-23T01:15:00.918Z,88.9
2022-12-23T01:16:01.070Z,88.9
2022-12-23T01:17:01.267Z,88.9
2022-12-23T01:18:00.392Z,88.9
2022-12-23T01:19:00.524Z,89
2022-12-23T01:20:00.661Z,89
2022-12-23T01:21:00.808Z,88.9
2022-12-23T01:22:00.973Z,88.9
2022-12-23T01:23:01.110Z,89
2022-12-23T01:24:01.269Z,88.9
2022-12-23T01:25:00.394Z,89
2022-12-23T01:26:00.567Z,89
2022-12-23T01:27:00.696Z,89
2022-12-23T01:28:00.850Z,89
2022-12-23T01:29:01.043Z,89
2022-12-23T01:30:01.202Z,89
2022-12-23T01:31:00.289Z,89
2022-12-23T01:32:00.567Z,89
2022-12-23T01:33:00.586Z,89
2022-12-23T01:34:00.780Z,88.9
2022-12-23T01:35:00.893Z,88.9
2022-12-23T01:36:01.041Z,88.9
2022-12-23T01:37:01.230Z,88.9
2022-12-23T01:38:00.330Z,88.9
2022-12-23T01:39:00.522Z,88.9
2022-12-23T01:40:00.639Z,89
2022-12-23T01:41:00.781Z,89
2022-12-23T01:42:00.929Z,88.9
2022-12-23T01:43:01.122Z,88.9
2022-12-23T01:44:01.259Z,88.8
2022-12-23T01:45:00.379Z,88.9
2022-12-23T01:46:00.606Z,89
2022-12-23T01:47:00.691Z,88.9
2022-12-23T01:48:00.841Z,89
2022-12-23T01:49:01.011Z,89
2022-12-23T01:50:01.125Z,89
2022-12-23T01:51:00.272Z,89.1
2022-12-23T01:52:00.431Z,89.1
2022-12-23T01:53:04.818Z,89.1
2022-12-23T01:54:00.752Z,89.1
2022-12-23T01:55:00.866Z,89.2
2022-12-23T01:56:01.027Z,89.3
2022-12-23T01:57:01.169Z,89.3
2022-12-23T01:58:00.313Z,89.3
2022-12-23T01:59:00.492Z,89.4
2022-12-23T02:00:00.608Z,89.4
2022-12-23T02:01:00.868Z,89.4
2022-12-23T02:02:01.131Z,89.4
2022-12-23T02:03:01.181Z,89.5
2022-12-23T02:04:01.226Z,89.5
2022-12-23T02:05:00.362Z,89.5
2022-12-23T02:06:00.506Z,89.5
2022-12-23T02:07:00.648Z,89.6
2022-12-23T02:08:00.805Z,89.6
2022-12-23T02:09:00.964Z,89.6
2022-12-23T02:10:01.109Z,89.6
2022-12-23T02:11:01.239Z,89.5
2022-12-23T02:12:00.400Z,89.5
2022-12-23T02:13:00.521Z,89.5
2022-12-23T02:14:00.701Z,89.5
2022-12-23T02:15:00.843Z,89.5
2022-12-23T02:16:00.975Z,89.5
2022-12-23T02:17:01.233Z,89.5
2022-12-23T02:18:00.265Z,89.6
2022-12-23T02:19:00.461Z,89.6
2022-12-23T02:20:00.568Z,89.6
2022-12-23T02:21:00.719Z,89.6
2022-12-23T02:22:00.865Z,89.6
2022-12-23T02:23:01.018Z,89.6
2022-12-23T02:24:01.158Z,89.5
2022-12-23T02:25:00.325Z,89.5
2022-12-23T02:26:00.467Z,89.5
2022-12-23T02:27:00.622Z,89.5
2022-12-23T02:28:00.761Z,89.4
2022-12-23T02:29:00.915Z,89.5
2022-12-23T02:30:01.102Z,89.5
2022-12-23T02:31:01.300Z,89.5
2022-12-23T02:32:00.336Z,89.5
2022-12-23T02:33:00.498Z,89.4
2022-12-23T02:34:00.635Z,89.4
2022-12-23T02:35:00.817Z,89.4
2022-12-23T02:36:00.953Z,89.4
2022-12-23T02:37:01.103Z,89.4
2022-12-23T02:38:01.243Z,89.3
2022-12-23T02:39:00.394Z,89.3
2022-12-23T02:40:00.568Z,89.3
2022-12-23T02:41:00.716Z,89.2
2022-12-23T02:42:00.860Z,89.1
2022-12-23T02:43:01.032Z,89.2
2022-12-23T02:44:01.171Z,89.2
2022-12-23T02:45:00.312Z,89.3
2022-12-23T02:46:00.550Z,89.3
2022-12-23T02:47:00.605Z,89.2
2022-12-23T02:48:00.763Z,89.2
2022-12-23T02:49:00.916Z,89.3
2022-12-23T02:50:01.049Z,89.2
2022-12-23T02:51:01.204Z,89.3
2022-12-23T02:52:00.348Z,89.2
2022-12-23T02:53:00.511Z,89.2
2022-12-23T02:54:00.678Z,89.1
2022-12-23T02:55:00.798Z,89.1
2022-12-23T02:56:00.940Z,89.1
2022-12-23T02:57:01.099Z,89.1
2022-12-23T02:58:01.252Z,89.1
2022-12-23T02:59:00.393Z,89.1
2022-12-23T03:00:00.529Z,89
2022-12-23T03:01:00.676Z,89
2022-12-23T03:02:00.903Z,88.9
2022-12-23T03:03:01.162Z,88.9
2022-12-23T03:04:01.272Z,88.8
2022-12-23T03:05:01.174Z,88.7
2022-12-23T03:06:00.410Z,88.6
2022-12-23T03:07:05.882Z,88.6
2022-12-23T03:08:00.726Z,88.5
2022-12-23T03:09:00.885Z,88.4
2022-12-23T03:10:01.044Z,88.3
2022-12-23T03:11:01.164Z,88.2
2022-12-23T03:12:00.303Z,88.2
2022-12-23T03:13:00.540Z,88.1
2022-12-23T03:14:00.619Z,88.1
2022-12-23T03:15:00.768Z,88.1
2022-12-23T03:16:01.020Z,88.1
2022-12-23T03:17:01.071Z,88
2022-12-23T03:18:01.219Z,87.9
2022-12-23T03:19:00.396Z,88
2022-12-23T03:20:00.506Z,88
2022-12-23T03:21:00.635Z,88
2022-12-23T03:22:00.801Z,88
2022-12-23T03:23:00.961Z,88.1
2022-12-23T03:24:01.112Z,88.1
2022-12-23T03:25:01.248Z,88.2
2022-12-23T03:26:00.418Z,88.2
2022-12-23T03:27:00.555Z,88.3
2022-12-23T03:28:00.688Z,88.4
2022-12-23T03:29:00.842Z,88.4
2022-12-23T03:30:00.996Z,88.5
2022-12-23T03:31:01.241Z,88.5
2022-12-23T03:32:00.281Z,88.6
2022-12-23T03:33:00.435Z,88.7
2022-12-23T03:34:00.586Z,88.7
2022-12-23T03:35:00.740Z,88.6
2022-12-23T03:36:00.910Z,88.5
2022-12-23T03:37:01.028Z,88.5
2022-12-23T03:38:01.174Z,88.5
2022-12-23T03:39:00.316Z,88.6
2022-12-23T03:40:00.469Z,88.7
2022-12-23T03:41:00.636Z,88.7
2022-12-23T03:42:00.772Z,88.5
2022-12-23T03:43:00.920Z,88.4
2022-12-23T03:44:01.061Z,88.3
2022-12-23T03:45:37.032Z,88.2
2022-12-23T03:46:00.401Z,88.3
2022-12-23T03:47:00.499Z,88.2
2022-12-23T03:48:00.655Z,88.1
2022-12-23T03:49:00.804Z,88.1
2022-12-23T03:50:00.946Z,88.2
2022-12-23T03:51:01.131Z,88.1
2022-12-23T03:52:01.252Z,88
2022-12-23T03:53:00.403Z,88
2022-12-23T03:54:00.554Z,87.9
2022-12-23T03:55:00.705Z,87.9
2022-12-23T03:56:00.871Z,88
2022-12-23T03:57:01.005Z,87.9
2022-12-23T03:58:01.149Z,87.9
2022-12-23T03:59:00.320Z,87.9
2022-12-23T04:00:00.447Z,87.8
2022-12-23T04:01:00.609Z,87.7
2022-12-23T04:02:00.859Z,87.6
2022-12-23T04:03:00.995Z,87.5
2022-12-23T04:04:01.128Z,87.5
2022-12-23T04:05:01.198Z,87.5
2022-12-23T04:06:00.337Z,87.5
2022-12-23T04:07:00.495Z,87.5
2022-12-23T04:08:00.644Z,87.5
2022-12-23T04:09:00.810Z,87.5
2022-12-23T04:10:00.924Z,87.4
2022-12-23T04:11:01.083Z,87.4
2022-12-23T04:12:01.225Z,87.4
2022-12-23T04:13:00.382Z,87.4
2022-12-23T04:14:00.542Z,87.3
2022-12-23T04:15:00.694Z,87.3
2022-12-23T04:16:00.892Z,87.2
2022-12-23T04:17:00.984Z,87.3
2022-12-23T04:18:01.141Z,87.3
2022-12-23T04:19:00.286Z,87.1
2022-12-23T04:20:00.494Z,87.1
2022-12-23T04:21:00.581Z,87.1
2022-12-23T04:22:00.741Z,87.2
2022-12-23T04:23:00.898Z,87.2
2022-12-23T04:24:01.043Z,87.3
2022-12-23T04:25:01.210Z,87.2
2022-12-23T04:26:00.352Z,87.1
2022-12-23T04:27:00.504Z,87.1
2022-12-23T04:28:00.642Z,87.1
2022-12-23T04:29:00.799Z,87.1
2022-12-23T04:30:00.958Z,87.1
2022-12-23T04:31:01.205Z,87.1
2022-12-23T04:32:01.241Z,87.2
2022-12-23T04:33:00.406Z,87.3
2022-12-23T04:34:00.564Z,87.2
2022-12-23T04:35:00.702Z,87.3
2022-12-23T04:36:00.858Z,87.2
2022-12-23T04:37:01.008Z,87.2
2022-12-23T04:38:01.156Z,87.1
2022-12-23T04:39:00.332Z,87
2022-12-23T04:40:00.461Z,87
2022-12-23T04:41:00.612Z,87.1
2022-12-23T04:42:00.755Z,87.1
2022-12-23T04:43:00.896Z,87
2022-12-23T04:44:01.082Z,87.1
2022-12-23T04:45:01.202Z,87.1
2022-12-23T04:46:00.367Z,87.1
2022-12-23T04:47:00.572Z,87.1
2022-12-23T04:48:00.668Z,87.1
2022-12-23T04:49:00.828Z,87
2022-12-23T04:50:00.967Z,86.9
2022-12-23T04:51:01.125Z,86.9
2022-12-23T04:53:00.376Z,86.8
2022-12-23T04:54:00.544Z,86.8
2022-12-23T04:55:00.670Z,86.8
2022-12-23T04:56:00.829Z,86.9
2022-12-23T04:57:00.977Z,86.9
2022-12-23T04:58:01.134Z,86.9
2022-12-23T04:59:00.313Z,86.8
2022-12-23T05:00:00.435Z,86.8
2022-12-23T05:01:00.623Z,86.8
2022-12-23T05:02:00.984Z,86.9
2022-12-23T05:03:00.989Z,86.9
2022-12-23T05:04:01.047Z,87
2022-12-23T05:05:01.193Z,86.9
2022-12-23T05:06:00.344Z,86.9
2022-12-23T05:07:00.481Z,86.9
2022-12-23T05:08:00.615Z,86.9
2022-12-23T05:09:00.775Z,87
2022-12-23T05:10:00.929Z,87
2022-12-23T05:11:01.070Z,87
2022-12-23T05:12:01.231Z,87
2022-12-23T05:13:00.380Z,87
2022-12-23T05:14:00.524Z,87
2022-12-23T05:15:00.707Z,87
2022-12-23T05:16:00.921Z,87
2022-12-23T05:17:07.103Z,87
2022-12-23T05:18:01.116Z,87
2022-12-23T05:19:00.263Z,87
2022-12-23T05:20:00.434Z,86.9
2022-12-23T05:21:00.597Z,86.9
2022-12-23T05:22:00.715Z,86.9
2022-12-23T05:23:00.847Z,87
2022-12-23T05:24:00.991Z,87
2022-12-23T05:25:01.159Z,87
2022-12-23T05:26:00.328Z,87
2022-12-23T05:27:00.747Z,87
2022-12-23T05:28:00.581Z,87.1
2022-12-23T05:29:00.732Z,87
2022-12-23T05:30:00.889Z,87
2022-12-23T05:31:01.077Z,87
2022-12-23T05:32:01.274Z,87
2022-12-23T05:33:00.409Z,87
2022-12-23T05:34:06.103Z,86.9
2022-12-23T05:35:00.646Z,86.8
2022-12-23T05:36:00.812Z,86.8
2022-12-23T05:37:00.936Z,86.7
2022-12-23T05:38:01.097Z,86.7
2022-12-23T05:39:01.251Z,86.7
2022-12-23T05:40:00.395Z,86.7
2022-12-23T05:41:00.570Z,86.7
2022-12-23T05:42:00.737Z,86.8
2022-12-23T05:43:00.861Z,86.8
2022-12-23T05:44:01.024Z,86.9
2022-12-23T05:45:01.147Z,86.9
2022-12-23T05:46:00.336Z,86.8
2022-12-23T05:47:00.462Z,86.7
2022-12-23T05:48:00.608Z,86.8
2022-12-23T05:49:00.759Z,86.7
2022-12-23T05:50:00.942Z,86.6
2022-12-23T05:51:01.046Z,86.6
2022-12-23T05:52:01.196Z,86.6
2022-12-23T05:53:00.336Z,86.8
2022-12-23T05:54:00.510Z,86.7
2022-12-23T05:55:00.681Z,86.8
2022-12-23T05:56:00.845Z,86.8
2022-12-23T05:57:00.962Z,86.9
2022-12-23T05:58:01.121Z,87
2022-12-23T05:59:01.245Z,87
2022-12-23T06:00:00.394Z,87
2022-12-23T06:01:00.550Z,87
2022-12-23T06:02:00.915Z,86.9
2022-12-23T06:03:01.119Z,86.9
2022-12-23T06:04:01.285Z,86.9
2022-12-23T06:05:01.147Z,87
2022-12-23T06:06:00.293Z,87.1
2022-12-23T06:07:00.429Z,87.1
2022-12-23T06:08:00.594Z,87.1
2022-12-23T06:09:00.727Z,87.1
2022-12-23T06:10:00.875Z,87.1
2022-12-23T06:11:01.032Z,87.1
2022-12-23T06:12:01.171Z,87.1
2022-12-23T06:13:00.334Z,87.1
2022-12-23T06:14:00.499Z,87
2022-12-23T06:15:00.632Z,87
2022-12-23T06:16:00.762Z,86.9
2022-12-23T06:17:00.973Z,86.9
2022-12-23T06:18:01.056Z,86.9
2022-12-23T06:19:01.210Z,86.9
2022-12-23T06:20:00.389Z,86.9
2022-12-23T06:21:00.515Z,86.9
2022-12-23T06:22:00.651Z,86.9
2022-12-23T06:23:00.835Z,86.9
2022-12-23T06:24:00.951Z,86.8
2022-12-23T06:25:01.126Z,86.8
2022-12-23T06:26:01.249Z,86.9
2022-12-23T06:27:00.396Z,86.9
2022-12-23T06:28:00.581Z,86.9
2022-12-23T06:29:00.698Z,86.8
2022-12-23T06:30:00.848Z,86.9
2022-12-23T06:31:01.004Z,86.9
2022-12-23T06:32:01.259Z,86.9
2022-12-23T06:33:00.338Z,87
2022-12-23T06:34:00.463Z,87
2022-12-23T06:35:00.608Z,87.1
2022-12-23T06:36:00.756Z,87.1
2022-12-23T06:37:00.908Z,87.1
2022-12-23T06:38:01.064Z,87.1
2022-12-23T06:39:01.193Z,87.1
2022-12-23T06:40:00.357Z,87
2022-12-23T06:41:00.504Z,87
2022-12-23T06:42:00.676Z,87
2022-12-23T06:43:00.844Z,87
2022-12-23T06:44:00.977Z,86.9
2022-12-23T06:45:01.120Z,86.8
2022-12-23T06:46:01.312Z,86.9
2022-12-23T06:47:00.472Z,86.9
2022-12-23T06:48:00.553Z,86.9
2022-12-23T06:49:00.712Z,86.9
2022-12-23T06:50:00.849Z,87
2022-12-23T06:51:01.030Z,87
2022-12-23T06:52:01.175Z,86.9
2022-12-23T06:53:00.313Z,86.9
2022-12-23T06:54:00.449Z,86.9
2022-12-23T06:55:00.602Z,86.9
2022-12-23T06:56:00.753Z,86.9
2022-12-23T06:57:00.918Z,86.9
2022-12-23T06:58:01.058Z,86.8
2022-12-23T06:59:01.219Z,86.9
2022-12-23T07:00:00.359Z,86.8
2022-12-23T07:01:00.531Z,86.7
2022-12-23T07:02:00.907Z,86.7
2022-12-23T07:03:01.022Z,86.7
2022-12-23T07:04:00.961Z,86.7
2022-12-23T07:05:01.116Z,86.6
2022-12-23T07:07:00.383Z,86.5
2022-12-23T07:08:00.543Z,86.5
2022-12-23T07:09:00.672Z,86.5
2022-12-23T07:10:00.811Z,86.6
2022-12-23T07:11:00.966Z,86.6
2022-12-23T07:12:01.115Z,86.6
2022-12-23T07:13:01.253Z,86.5
2022-12-23T07:14:00.437Z,86.4
2022-12-23T07:15:00.541Z,86.3
2022-12-23T07:16:00.691Z,86.3
2022-12-23T07:17:00.924Z,86.4
2022-12-23T07:18:00.980Z,86.4
2022-12-23T07:19:01.140Z,86.5
2022-12-23T07:20:00.302Z,86.5
2022-12-23T07:21:00.433Z,86.5
2022-12-23T07:22:00.567Z,86.5
2022-12-23T07:23:00.706Z,86.5
2022-12-23T07:24:00.885Z,86.6
2022-12-23T07:25:01.027Z,86.5
2022-12-23T07:26:01.173Z,86.4
2022-12-23T07:27:00.315Z,86.4
2022-12-23T07:28:00.462Z,86.3
2022-12-23T07:29:00.615Z,86.4
2022-12-23T07:30:00.769Z,86.4
2022-12-23T07:31:00.967Z,86.4
2022-12-23T07:32:01.104Z,86.4
2022-12-23T07:33:01.196Z,86.4
2022-12-23T07:34:00.359Z,86.4
2022-12-23T07:35:00.516Z,86.4
2022-12-23T07:36:00.640Z,86.4
2022-12-23T07:37:00.775Z,86.5
2022-12-23T07:38:00.941Z,86.6
2022-12-23T07:39:01.085Z,86.8
2022-12-23T07:40:08.042Z,87
2022-12-23T07:41:00.396Z,87
2022-12-23T07:42:25.099Z,87.2
2022-12-23T07:43:00.676Z,87.4
2022-12-23T07:44:00.817Z,87.5
2022-12-23T07:45:00.988Z,87.6
2022-12-23T07:46:01.336Z,87.6
2022-12-23T07:47:00.261Z,87.7
2022-12-23T07:48:00.428Z,87.7
2022-12-23T07:49:00.572Z,87.7
2022-12-23T07:50:00.696Z,87.7
2022-12-23T07:51:00.897Z,87.8
2022-12-23T07:52:01.008Z,87.8
2022-12-23T07:53:01.151Z,87.9
2022-12-23T07:54:00.347Z,87.9
2022-12-23T07:55:00.461Z,87.9
2022-12-23T07:56:00.649Z,87.9
2022-12-23T07:57:00.768Z,87.9
2022-12-23T07:58:00.922Z,87.9
2022-12-23T07:59:01.076Z,87.9
2022-12-23T08:00:01.218Z,87.9
2022-12-23T08:01:00.471Z,87.9
2022-12-23T08:02:00.691Z,87.9
2022-12-23T08:03:00.891Z,87.9
2022-12-23T08:04:00.816Z,87.9
2022-12-23T08:05:01.015Z,87.8
2022-12-23T08:06:01.131Z,87.8
2022-12-23T08:07:01.256Z,87.8
2022-12-23T08:08:00.438Z,87.8
2022-12-23T08:09:00.570Z,87.8
2022-12-23T08:10:00.721Z,87.9
2022-12-23T08:11:00.884Z,87.9
2022-12-23T08:12:01.017Z,87.7
2022-12-23T08:13:01.169Z,87.7
2022-12-23T08:14:00.316Z,87.6
2022-12-23T08:15:00.472Z,87.6
2022-12-23T08:16:00.620Z,87.6
2022-12-23T08:17:00.859Z,87.6
2022-12-23T08:18:00.900Z,87.6
2022-12-23T08:19:01.069Z,87.5
2022-12-23T08:20:01.214Z,87.4
2022-12-23T08:21:00.358Z,87.5
2022-12-23T08:22:00.526Z,87.4
2022-12-23T08:23:00.675Z,87.3
2022-12-23T08:24:00.811Z,87.3
2022-12-23T08:25:00.965Z,87.3
2022-12-23T08:26:01.108Z,87.2
2022-12-23T08:27:01.255Z,87
2022-12-23T08:28:00.424Z,87
2022-12-23T08:29:00.575Z,86.9
2022-12-23T08:30:00.727Z,86.8
2022-12-23T08:31:00.906Z,86.8
2022-12-23T08:32:01.006Z,86.8
2022-12-23T08:33:01.144Z,86.7
2022-12-23T08:34:00.311Z,86.7
2022-12-23T08:35:00.489Z,86.7
2022-12-23T08:36:00.611Z,86.7
2022-12-23T08:37:00.780Z,86.6
2022-12-23T08:38:00.906Z,86.5
2022-12-23T08:39:01.085Z,86.5
2022-12-23T08:40:01.236Z,86.4
2022-12-23T08:41:00.372Z,86.3
2022-12-23T08:42:00.520Z,86.2
2022-12-23T08:43:00.659Z,86.1
2022-12-23T08:44:00.839Z,86
2022-12-23T08:45:00.971Z,86
2022-12-23T08:46:01.181Z,85.9
2022-12-23T08:47:01.271Z,86
2022-12-23T08:48:00.405Z,86.1
2022-12-23T08:49:00.584Z,86.2
2022-12-23T08:50:00.720Z,86
2022-12-23T08:51:00.867Z,85.8
2022-12-23T08:52:01.004Z,85.8
2022-12-23T08:53:01.158Z,85.5
2022-12-23T08:54:01.322Z,85.5
2022-12-23T08:55:00.452Z,85.5
2022-12-23T08:56:00.601Z,85.6
2022-12-23T08:57:00.748Z,85.7
2022-12-23T08:58:00.903Z,85.6
2022-12-23T08:59:01.075Z,85.6
2022-12-23T09:00:01.201Z,85.5
2022-12-23T09:01:00.429Z,85.3
2022-12-23T09:02:00.559Z,85.2
2022-12-23T09:03:00.881Z,85.3
2022-12-23T09:04:00.855Z,85.3
2022-12-23T09:05:00.963Z,85.4
2022-12-23T09:06:01.097Z,85.5
2022-12-23T09:07:01.256Z,85.5
2022-12-23T09:08:00.398Z,85.4
2022-12-23T09:09:00.555Z,85.5
2022-12-23T09:10:00.719Z,85.5
2022-12-23T09:11:00.854Z,85.5
2022-12-23T09:12:01.007Z,85.6
2022-12-23T09:13:01.167Z,85.6
2022-12-23T09:14:00.365Z,85.6
2022-12-23T09:15:00.461Z,85.6
2022-12-23T09:16:00.660Z,85.7
2022-12-23T09:17:00.771Z,85.7
2022-12-23T09:18:00.921Z,85.7
2022-12-23T09:19:01.090Z,85.7
2022-12-23T09:20:01.228Z,85.6
2022-12-23T09:21:00.429Z,85.7
2022-12-23T09:22:00.521Z,85.7
2022-12-23T09:23:00.723Z,85.3
2022-12-23T09:24:00.823Z,85.2
2022-12-23T09:25:05.085Z,85.3
2022-12-23T09:26:01.120Z,85.3
2022-12-23T09:27:00.344Z,85.1
2022-12-23T09:28:00.425Z,85
2022-12-23T09:29:00.582Z,85.1
2022-12-23T09:30:00.722Z,85.1
2022-12-23T09:31:00.955Z,84.8
2022-12-23T09:32:01.049Z,84.7
2022-12-23T09:33:01.177Z,84.6
2022-12-23T09:34:00.334Z,84.5
2022-12-23T09:35:00.488Z,84.3
2022-12-23T09:36:00.626Z,84.3
2022-12-23T09:37:00.812Z,84.3
2022-12-23T09:38:00.937Z,84.6
2022-12-23T09:39:01.067Z,84.6
2022-12-23T09:40:01.231Z,84.4
2022-12-23T09:41:00.364Z,84.2
2022-12-23T09:42:00.521Z,84
2022-12-23T09:43:00.695Z,84.1
2022-12-23T09:44:00.802Z,84
2022-12-23T09:45:00.946Z,83.9
2022-12-23T09:46:01.183Z,83.9
2022-12-23T09:47:01.327Z,84
2022-12-23T09:48:00.645Z,84.1
2022-12-23T09:49:00.564Z,83.8
2022-12-23T09:50:00.700Z,83.7
2022-12-23T09:51:00.851Z,83.8
2022-12-23T09:52:01.009Z,83.6
2022-12-23T09:53:01.158Z,83.5
2022-12-23T09:54:00.298Z,83.3
2022-12-23T09:55:00.483Z,83.1
2022-12-23T09:56:00.613Z,82.9
2022-12-23T09:57:00.794Z,83.1
2022-12-23T09:58:00.916Z,83.3
2022-12-23T09:59:01.034Z,82.7
2022-12-23T10:00:01.202Z,82.5
2022-12-23T10:01:00.346Z,82.5
2022-12-23T10:02:00.695Z,82.6
2022-12-23T10:03:00.906Z,82.4
2022-12-23T10:04:00.896Z,82.4
2022-12-23T10:05:00.948Z,82.3
2022-12-23T10:06:01.098Z,82.4
2022-12-23T10:07:03.213Z,82.9
2022-12-23T10:08:00.387Z,83.1
2022-12-23T10:09:00.562Z,83
2022-12-23T10:10:00.685Z,83.1
2022-12-23T10:11:00.833Z,82.7
2022-12-23T10:12:01.003Z,82.6
2022-12-23T10:13:01.167Z,82.7
2022-12-23T10:14:00.275Z,82.9
2022-12-23T10:15:00.469Z,83.2
2022-12-23T10:16:00.671Z,83.2
2022-12-23T10:17:00.726Z,83
2022-12-23T10:18:00.936Z,83.1
2022-12-23T10:19:01.043Z,83.2
2022-12-23T10:20:01.182Z,83.3
2022-12-23T10:21:00.338Z,83.1
2022-12-23T10:22:00.468Z,82.9
2022-12-23T10:23:00.637Z,82.9
2022-12-23T10:24:00.766Z,83
2022-12-23T10:25:00.931Z,82.6
2022-12-23T10:26:01.096Z,82.9
2022-12-23T10:27:01.223Z,82.9
2022-12-23T10:28:00.358Z,82.8
2022-12-23T10:29:00.509Z,82.8
2022-12-23T10:30:13.893Z,82.7
2022-12-23T10:32:01.013Z,82.5
2022-12-23T10:33:01.117Z,82.4
2022-12-23T10:34:01.258Z,82.5
2022-12-23T10:35:00.400Z,82.4
2022-12-23T10:36:00.638Z,82.7
2022-12-23T10:37:00.884Z,82
2022-12-23T10:38:00.852Z,82
2022-12-23T10:39:00.995Z,82.1
2022-12-23T10:40:01.157Z,81.9
2022-12-23T10:41:06.942Z,81.5
2022-12-23T10:42:00.486Z,81.5
2022-12-23T10:43:00.606Z,81.5
2022-12-23T10:44:00.754Z,81.1
2022-12-23T10:45:00.914Z,81.5
2022-12-23T10:46:01.078Z,81.4
2022-12-23T10:47:01.301Z,81.5
2022-12-23T10:48:00.364Z,81.4
2022-12-23T10:49:00.525Z,81.3
2022-12-23T10:50:00.670Z,81.3
2022-12-23T10:51:00.829Z,81.4
2022-12-23T10:52:00.985Z,81.6
2022-12-23T10:53:01.114Z,81.2
2022-12-23T10:54:01.312Z,80.9
2022-12-23T10:55:00.457Z,80.7
2022-12-23T10:56:00.583Z,80.6
2022-12-23T10:57:00.745Z,80.6
2022-12-23T10:58:00.858Z,80.3
2022-12-23T10:59:01.007Z,80.5
2022-12-23T11:00:01.168Z,80.7
2022-12-23T11:01:00.336Z,80.2
2022-12-23T11:02:00.631Z,79.9
2022-12-23T11:03:00.772Z,80.2
2022-12-23T11:04:00.743Z,80.4
2022-12-23T11:05:00.902Z,80.3
2022-12-23T11:06:01.056Z,80.3
2022-12-23T11:07:34.311Z,80.4
2022-12-23T11:08:00.352Z,80.4
2022-12-23T11:09:00.507Z,80.4
2022-12-23T11:10:00.645Z,80.6
2022-12-23T11:11:00.793Z,81
2022-12-23T11:12:01.033Z,80.7
2022-12-23T11:13:01.093Z,80.7
2022-12-23T11:14:01.238Z,80.4
2022-12-23T11:15:00.392Z,80.4
2022-12-23T11:16:00.596Z,80.4
2022-12-23T11:17:00.749Z,80.6
2022-12-23T11:18:00.862Z,80.8
2022-12-23T11:19:00.999Z,80.4
2022-12-23T11:20:01.144Z,80.2
2022-12-23T11:21:00.298Z,80.7
2022-12-23T11:22:00.477Z,80.8
2022-12-23T11:23:00.601Z,80.4
2022-12-23T11:24:00.741Z,80.4
2022-12-23T11:25:00.890Z,80.2
2022-12-23T11:26:01.019Z,80.4
2022-12-23T11:27:01.198Z,80.4
2022-12-23T11:28:00.313Z,80.5
2022-12-23T11:29:00.457Z,80.3
2022-12-23T11:30:00.631Z,80.2
2022-12-23T11:31:00.795Z,80.2
2022-12-23T11:32:00.994Z,80.5
2022-12-23T11:33:01.066Z,80.2
2022-12-23T11:34:01.209Z,80
2022-12-23T11:35:00.398Z,80.2
2022-12-23T11:36:00.500Z,80.1
2022-12-23T11:37:06.978Z,80.4
2022-12-23T11:38:00.843Z,80.7
2022-12-23T11:39:00.958Z,80.8
2022-12-23T11:40:01.110Z,81.2
2022-12-23T11:41:01.265Z,81.5
2022-12-23T11:42:00.425Z,81.1
2022-12-23T11:43:00.585Z,81.1
2022-12-23T11:44:00.683Z,80.8
2022-12-23T11:45:00.845Z,80.7
2022-12-23T11:46:01.071Z,81.2
2022-12-23T11:47:01.135Z,80.8
2022-12-23T11:48:00.297Z,81
2022-12-23T11:49:00.464Z,81.4
2022-12-23T11:50:00.594Z,81.3
2022-12-23T11:51:00.752Z,81.4
2022-12-23T11:52:00.884Z,81.5
2022-12-23T11:53:01.028Z,81.3
2022-12-23T11:54:01.212Z,81.9
2022-12-23T11:55:00.325Z,82.2
2022-12-23T11:56:00.473Z,82.5
2022-12-23T11:57:00.797Z,82.7
2022-12-23T11:58:00.796Z,82.6
2022-12-23T11:59:00.956Z,82.4
2022-12-23T12:00:01.084Z,82.6
2022-12-23T12:01:01.241Z,82.7
2022-12-23T12:02:00.446Z,82.4
2022-12-23T12:03:00.539Z,82.4
2022-12-23T12:04:00.762Z,82.4
2022-12-23T12:05:00.855Z,82.6
2022-12-23T12:06:00.959Z,82.7
2022-12-23T12:07:01.107Z,82.8
2022-12-23T12:08:01.279Z,82.8
2022-12-23T12:09:00.431Z,82.5
2022-12-23T12:10:00.560Z,82.7
2022-12-23T12:11:00.731Z,82.2
2022-12-23T12:12:00.862Z,82.4
2022-12-23T12:13:01.004Z,82.5
2022-12-23T12:14:01.181Z,82.4
2022-12-23T12:15:00.299Z,82
2022-12-23T12:16:00.484Z,82.2
2022-12-23T12:17:00.697Z,82.3
2022-12-23T12:18:00.760Z,82.8
2022-12-23T12:19:00.911Z,82.7
2022-12-23T12:20:01.074Z,82.4
2022-12-23T12:21:01.204Z,82
2022-12-23T12:22:00.331Z,82.2
2022-12-23T12:23:00.499Z,82.2
2022-12-23T12:24:17.707Z,82.3
2022-12-23T12:25:00.792Z,82.4
2022-12-23T12:26:00.958Z,82.4
2022-12-23T12:27:01.085Z,82.3
2022-12-23T12:28:01.252Z,81.8
2022-12-23T12:29:00.388Z,81.7
2022-12-23T12:30:06.076Z,81.8
2022-12-23T12:31:00.820Z,81.6
2022-12-23T12:32:00.864Z,82
2022-12-23T12:33:01.044Z,81.8
2022-12-23T12:34:01.166Z,81.9
2022-12-23T12:35:00.325Z,82.2
2022-12-23T12:36:05.253Z,82.2
2022-12-23T12:37:00.709Z,82.3
2022-12-23T12:38:00.767Z,82
2022-12-23T12:39:00.930Z,81.9
2022-12-23T12:40:01.095Z,82.4
2022-12-23T12:41:01.228Z,82.2
2022-12-23T12:42:05.263Z,82.2
2022-12-23T12:43:00.519Z,81.9
2022-12-23T12:44:00.656Z,82.1
2022-12-23T12:45:00.855Z,82.2
2022-12-23T12:46:00.988Z,82.3
2022-12-23T12:47:04.147Z,81.9
2022-12-23T12:48:07.200Z,81.8
2022-12-23T12:49:00.378Z,82.1
2022-12-23T12:50:00.560Z,82
2022-12-23T12:51:00.684Z,82
2022-12-23T12:52:00.834Z,81.7
2022-12-23T12:53:00.982Z,81.7
2022-12-23T12:54:05.181Z,82
2022-12-23T12:55:00.289Z,81.9
2022-12-23T12:56:00.436Z,81.9
2022-12-23T12:57:00.560Z,81.8
2022-12-23T12:58:00.705Z,81.8
2022-12-23T12:59:00.858Z,82
2022-12-23T13:00:06.028Z,82
2022-12-23T13:01:01.225Z,82
2022-12-23T13:02:00.301Z,82.2
2022-12-23T13:03:00.563Z,82.2
2022-12-23T13:04:00.604Z,82.2
2022-12-23T13:05:00.798Z,82.4
2022-12-23T13:06:00.935Z,82.2
2022-12-23T13:07:01.072Z,82.3
2022-12-23T13:08:01.214Z,82.2
2022-12-23T13:09:00.344Z,82.5
2022-12-23T13:10:00.555Z,82.4
2022-12-23T13:11:00.658Z,82.2
2022-12-23T13:12:00.802Z,82.3
2022-12-23T13:13:00.974Z,82.3
2022-12-23T13:14:01.116Z,82.4
2022-12-23T13:15:01.266Z,82.3
2022-12-23T13:16:00.418Z,82.5
2022-12-23T13:17:00.618Z,82.8
2022-12-23T13:18:03.630Z,83
2022-12-23T13:19:00.867Z,83.1
2022-12-23T13:20:01.011Z,83.1
2022-12-23T13:21:01.163Z,83.6
2022-12-23T13:22:00.320Z,83.6
2022-12-23T13:23:20.749Z,83.5
2022-12-23T13:24:04.100Z,83.6
2022-12-23T13:25:00.778Z,83.4
2022-12-23T13:26:00.899Z,83
2022-12-23T13:27:01.062Z,83.2
2022-12-23T13:28:01.206Z,83.3
2022-12-23T13:29:00.346Z,83.4